sensor_id;sensor_type;location;lat;lon;timestamp;P1;durP1;ratioP1;P2;durP2;ratioP2
19396;SDS011;9834;48.076;11.878;2022-07-09T00:01:22;5.03;;;4.30;;
19396;SDS011;9834;48.076;11.878;2022-07-09T00:03:49;6.03;;;4.03;;
19396;SDS011;9834;48.076;11.878;2022-07-09T00:06:20;5.20;;;3.87;;
19396;SDS011;9834;48.076;11.878;2022-07-09T00:08:53;4.63;;;4.13;;
19396;SDS011;9834;48.076;11.878;2022-07-09T00:11:20;8.83;;;4.10;;
19396;SDS011;9834;48.076;11.878;2022-07-09T00:13:47;5.23;;;4.23;;
19396;SDS011;9834;48.076;11.878;2022-07-09T00:16:16;5.37;;;3.90;;
19396;SDS011;9834;48.076;11.878;2022-07-09T00:18:43;4.23;;;3.80;;
19396;SDS011;9834;48.076;11.878;2022-07-09T00:21:10;5.17;;;3.77;;
19396;SDS011;9834;48.076;11.878;2022-07-09T00:23:37;3.87;;;3.57;;
19396;SDS011;9834;48.076;11.878;2022-07-09T00:26:04;4.40;;;4.00;;
19396;SDS011;9834;48.076;11.878;2022-07-09T00:28:33;5.60;;;3.63;;
19396;SDS011;9834;48.076;11.878;2022-07-09T00:31:00;4.60;;;4.13;;
19396;SDS011;9834;48.076;11.878;2022-07-09T00:33:29;6.17;;;3.57;;
19396;SDS011;9834;48.076;11.878;2022-07-09T00:35:58;6.00;;;4.10;;
19396;SDS011;9834;48.076;11.878;2022-07-09T00:38:26;4.67;;;4.13;;
19396;SDS011;9834;48.076;11.878;2022-07-09T00:40:52;6.13;;;3.67;;
19396;SDS011;9834;48.076;11.878;2022-07-09T00:43:20;5.37;;;3.90;;
19396;SDS011;9834;48.076;11.878;2022-07-09T00:45:48;4.43;;;3.90;;
19396;SDS011;9834;48.076;11.878;2022-07-09T00:48:15;7.13;;;4.33;;
19396;SDS011;9834;48.076;11.878;2022-07-09T00:50:46;6.40;;;3.83;;
19396;SDS011;9834;48.076;11.878;2022-07-09T00:53:16;5.53;;;3.90;;
19396;SDS011;9834;48.076;11.878;2022-07-09T00:55:45;6.83;;;4.00;;
19396;SDS011;9834;48.076;11.878;2022-07-09T00:58:13;5.37;;;4.07;;
19396;SDS011;9834;48.076;11.878;2022-07-09T01:00:43;5.63;;;4.20;;
19396;SDS011;9834;48.076;11.878;2022-07-09T01:03:12;4.43;;;4.03;;
19396;SDS011;9834;48.076;11.878;2022-07-09T01:05:41;4.70;;;3.93;;
19396;SDS011;9834;48.076;11.878;2022-07-09T01:08:09;7.27;;;4.10;;
19396;SDS011;9834;48.076;11.878;2022-07-09T01:10:36;8.87;;;4.80;;
19396;SDS011;9834;48.076;11.878;2022-07-09T01:13:08;10.13;;;5.43;;
19396;SDS011;9834;48.076;11.878;2022-07-09T01:15:35;5.43;;;4.00;;
19396;SDS011;9834;48.076;11.878;2022-07-09T01:18:09;6.67;;;5.20;;
19396;SDS011;9834;48.076;11.878;2022-07-09T01:20:37;8.13;;;5.40;;
19396;SDS011;9834;48.076;11.878;2022-07-09T01:23:06;6.43;;;4.93;;
19396;SDS011;9834;48.076;11.878;2022-07-09T01:25:34;8.50;;;5.33;;
19396;SDS011;9834;48.076;11.878;2022-07-09T01:28:04;7.03;;;4.70;;
19396;SDS011;9834;48.076;11.878;2022-07-09T01:30:33;6.60;;;4.60;;
19396;SDS011;9834;48.076;11.878;2022-07-09T01:33:02;6.73;;;4.00;;
19396;SDS011;9834;48.076;11.878;2022-07-09T01:35:29;6.40;;;5.00;;
19396;SDS011;9834;48.076;11.878;2022-07-09T01:37:58;6.33;;;4.40;;
19396;SDS011;9834;48.076;11.878;2022-07-09T01:40:25;6.73;;;4.97;;
19396;SDS011;9834;48.076;11.878;2022-07-09T01:42:52;6.97;;;4.40;;
19396;SDS011;9834;48.076;11.878;2022-07-09T01:45:21;6.83;;;4.30;;
19396;SDS011;9834;48.076;11.878;2022-07-09T01:47:48;5.77;;;4.20;;
19396;SDS011;9834;48.076;11.878;2022-07-09T01:50:19;6.07;;;4.50;;
19396;SDS011;9834;48.076;11.878;2022-07-09T01:52:46;7.13;;;4.47;;
19396;SDS011;9834;48.076;11.878;2022-07-09T01:55:15;6.23;;;4.40;;
19396;SDS011;9834;48.076;11.878;2022-07-09T01:57:42;6.83;;;3.80;;
19396;SDS011;9834;48.076;11.878;2022-07-09T02:00:09;4.57;;;3.83;;
19396;SDS011;9834;48.076;11.878;2022-07-09T02:02:37;5.37;;;3.50;;
19396;SDS011;9834;48.076;11.878;2022-07-09T02:05:19;4.60;;;4.10;;
19396;SDS011;9834;48.076;11.878;2022-07-09T02:07:46;4.53;;;3.40;;
19396;SDS011;9834;48.076;11.878;2022-07-09T02:10:17;3.63;;;3.30;;
19396;SDS011;9834;48.076;11.878;2022-07-09T02:12:47;3.80;;;3.50;;
19396;SDS011;9834;48.076;11.878;2022-07-09T02:15:15;5.43;;;2.97;;
19396;SDS011;9834;48.076;11.878;2022-07-09T02:17:42;3.40;;;3.10;;
19396;SDS011;9834;48.076;11.878;2022-07-09T02:20:09;4.30;;;3.13;;
19396;SDS011;9834;48.076;11.878;2022-07-09T02:22:37;5.10;;;3.33;;
19396;SDS011;9834;48.076;11.878;2022-07-09T02:25:05;3.33;;;3.00;;
19396;SDS011;9834;48.076;11.878;2022-07-09T02:27:34;4.03;;;3.40;;
19396;SDS011;9834;48.076;11.878;2022-07-09T02:30:01;3.77;;;2.80;;
19396;SDS011;9834;48.076;11.878;2022-07-09T02:32:28;3.80;;;2.77;;
19396;SDS011;9834;48.076;11.878;2022-07-09T02:34:57;5.03;;;3.23;;
19396;SDS011;9834;48.076;11.878;2022-07-09T02:37:27;3.13;;;2.83;;
19396;SDS011;9834;48.076;11.878;2022-07-09T02:39:54;4.97;;;3.30;;
19396;SDS011;9834;48.076;11.878;2022-07-09T02:42:23;3.80;;;3.33;;
19396;SDS011;9834;48.076;11.878;2022-07-09T02:44:52;4.13;;;3.17;;
19396;SDS011;9834;48.076;11.878;2022-07-09T02:47:22;5.20;;;2.87;;
19396;SDS011;9834;48.076;11.878;2022-07-09T02:49:49;4.63;;;3.53;;
19396;SDS011;9834;48.076;11.878;2022-07-09T02:52:16;4.87;;;3.37;;
19396;SDS011;9834;48.076;11.878;2022-07-09T02:54:43;4.37;;;3.20;;
19396;SDS011;9834;48.076;11.878;2022-07-09T02:57:13;4.53;;;3.17;;
19396;SDS011;9834;48.076;11.878;2022-07-09T02:59:40;5.07;;;2.97;;
19396;SDS011;9834;48.076;11.878;2022-07-09T03:02:11;4.87;;;3.20;;
19396;SDS011;9834;48.076;11.878;2022-07-09T03:04:39;3.43;;;2.70;;
19396;SDS011;9834;48.076;11.878;2022-07-09T03:07:06;3.03;;;2.80;;
19396;SDS011;9834;48.076;11.878;2022-07-09T03:09:33;3.47;;;2.93;;
19396;SDS011;9834;48.076;11.878;2022-07-09T03:12:01;3.77;;;3.20;;
19396;SDS011;9834;48.076;11.878;2022-07-09T03:14:30;5.30;;;3.40;;
19396;SDS011;9834;48.076;11.878;2022-07-09T03:17:01;5.03;;;3.70;;
19396;SDS011;9834;48.076;11.878;2022-07-09T03:19:30;5.50;;;3.40;;
19396;SDS011;9834;48.076;11.878;2022-07-09T03:21:57;4.60;;;3.17;;
19396;SDS011;9834;48.076;11.878;2022-07-09T03:24:24;3.50;;;3.20;;
19396;SDS011;9834;48.076;11.878;2022-07-09T03:26:55;4.63;;;2.80;;
19396;SDS011;9834;48.076;11.878;2022-07-09T03:29:22;3.10;;;2.80;;
19396;SDS011;9834;48.076;11.878;2022-07-09T03:31:49;4.80;;;2.97;;
19396;SDS011;9834;48.076;11.878;2022-07-09T03:34:20;2.63;;;2.43;;
19396;SDS011;9834;48.076;11.878;2022-07-09T03:36:49;3.10;;;2.80;;
19396;SDS011;9834;48.076;11.878;2022-07-09T03:39:16;2.37;;;2.13;;
19396;SDS011;9834;48.076;11.878;2022-07-09T03:41:43;3.73;;;2.53;;
19396;SDS011;9834;48.076;11.878;2022-07-09T03:44:11;3.30;;;2.57;;
19396;SDS011;9834;48.076;11.878;2022-07-09T03:46:38;2.63;;;2.43;;
19396;SDS011;9834;48.076;11.878;2022-07-09T03:49:05;6.37;;;2.60;;
19396;SDS011;9834;48.076;11.878;2022-07-09T03:51:46;4.37;;;2.93;;
19396;SDS011;9834;48.076;11.878;2022-07-09T03:54:20;3.20;;;2.30;;
19396;SDS011;9834;48.076;11.878;2022-07-09T03:56:47;2.37;;;2.07;;
19396;SDS011;9834;48.076;11.878;2022-07-09T03:59:15;3.07;;;2.10;;
19396;SDS011;9834;48.076;11.878;2022-07-09T04:01:42;2.47;;;2.27;;
19396;SDS011;9834;48.076;11.878;2022-07-09T04:04:09;2.33;;;2.13;;
19396;SDS011;9834;48.076;11.878;2022-07-09T04:06:37;2.47;;;1.93;;
19396;SDS011;9834;48.076;11.878;2022-07-09T04:09:08;3.20;;;2.87;;
19396;SDS011;9834;48.076;11.878;2022-07-09T04:11:35;2.97;;;2.57;;
19396;SDS011;9834;48.076;11.878;2022-07-09T04:14:02;3.60;;;1.80;;
19396;SDS011;9834;48.076;11.878;2022-07-09T04:16:31;2.60;;;2.33;;
19396;SDS011;9834;48.076;11.878;2022-07-09T04:18:59;2.80;;;1.77;;
19396;SDS011;9834;48.076;11.878;2022-07-09T04:21:26;1.87;;;1.70;;
19396;SDS011;9834;48.076;11.878;2022-07-09T04:23:53;2.77;;;1.70;;
19396;SDS011;9834;48.076;11.878;2022-07-09T04:26:23;2.40;;;1.90;;
19396;SDS011;9834;48.076;11.878;2022-07-09T04:28:50;4.07;;;1.80;;
19396;SDS011;9834;48.076;11.878;2022-07-09T04:31:18;2.73;;;1.90;;
19396;SDS011;9834;48.076;11.878;2022-07-09T04:33:46;3.20;;;2.13;;
19396;SDS011;9834;48.076;11.878;2022-07-09T04:36:13;2.77;;;1.60;;
19396;SDS011;9834;48.076;11.878;2022-07-09T04:38:40;3.93;;;1.97;;
19396;SDS011;9834;48.076;11.878;2022-07-09T04:41:07;1.50;;;1.37;;
19396;SDS011;9834;48.076;11.878;2022-07-09T04:43:39;3.80;;;2.30;;
19396;SDS011;9834;48.076;11.878;2022-07-09T04:46:07;3.03;;;1.47;;
19396;SDS011;9834;48.076;11.878;2022-07-09T04:48:35;3.00;;;1.50;;
19396;SDS011;9834;48.076;11.878;2022-07-09T04:51:02;3.33;;;1.70;;
19396;SDS011;9834;48.076;11.878;2022-07-09T04:53:29;2.80;;;1.70;;
19396;SDS011;9834;48.076;11.878;2022-07-09T04:55:56;3.23;;;1.60;;
19396;SDS011;9834;48.076;11.878;2022-07-09T04:58:26;3.80;;;1.67;;
19396;SDS011;9834;48.076;11.878;2022-07-09T05:00:56;2.10;;;1.53;;
19396;SDS011;9834;48.076;11.878;2022-07-09T05:03:23;2.30;;;1.83;;
19396;SDS011;9834;48.076;11.878;2022-07-09T05:05:52;4.90;;;2.00;;
19396;SDS011;9834;48.076;11.878;2022-07-09T05:08:20;2.47;;;1.50;;
19396;SDS011;9834;48.076;11.878;2022-07-09T05:10:48;3.57;;;2.07;;
19396;SDS011;9834;48.076;11.878;2022-07-09T05:13:15;6.77;;;1.60;;
19396;SDS011;9834;48.076;11.878;2022-07-09T05:15:43;2.00;;;1.60;;
19396;SDS011;9834;48.076;11.878;2022-07-09T05:18:13;2.10;;;1.80;;
19396;SDS011;9834;48.076;11.878;2022-07-09T05:20:40;3.27;;;2.10;;
19396;SDS011;9834;48.076;11.878;2022-07-09T05:23:10;2.20;;;1.30;;
19396;SDS011;9834;48.076;11.878;2022-07-09T05:25:41;2.20;;;1.83;;
19396;SDS011;9834;48.076;11.878;2022-07-09T05:28:10;3.03;;;1.60;;
19396;SDS011;9834;48.076;11.878;2022-07-09T05:30:37;4.33;;;1.67;;
19396;SDS011;9834;48.076;11.878;2022-07-09T05:33:04;1.90;;;1.77;;
19396;SDS011;9834;48.076;11.878;2022-07-09T05:35:34;3.00;;;1.43;;
19396;SDS011;9834;48.076;11.878;2022-07-09T05:38:05;3.43;;;1.50;;
19396;SDS011;9834;48.076;11.878;2022-07-09T05:40:33;4.17;;;1.60;;
19396;SDS011;9834;48.076;11.878;2022-07-09T05:43:00;5.07;;;1.60;;
19396;SDS011;9834;48.076;11.878;2022-07-09T05:45:30;2.63;;;1.50;;
19396;SDS011;9834;48.076;11.878;2022-07-09T05:47:57;4.13;;;1.90;;
19396;SDS011;9834;48.076;11.878;2022-07-09T05:50:24;3.27;;;1.60;;
19396;SDS011;9834;48.076;11.878;2022-07-09T05:52:52;2.17;;;1.30;;
19396;SDS011;9834;48.076;11.878;2022-07-09T05:55:19;3.63;;;1.50;;
19396;SDS011;9834;48.076;11.878;2022-07-09T05:57:46;2.50;;;1.80;;
19396;SDS011;9834;48.076;11.878;2022-07-09T06:00:17;3.07;;;1.50;;
19396;SDS011;9834;48.076;11.878;2022-07-09T06:02:44;1.30;;;1.07;;
19396;SDS011;9834;48.076;11.878;2022-07-09T06:05:10;3.80;;;1.43;;
19396;SDS011;9834;48.076;11.878;2022-07-09T06:07:38;5.23;;;1.87;;
19396;SDS011;9834;48.076;11.878;2022-07-09T06:10:11;4.63;;;1.70;;
19396;SDS011;9834;48.076;11.878;2022-07-09T06:12:39;5.73;;;1.77;;
19396;SDS011;9834;48.076;11.878;2022-07-09T06:15:10;2.60;;;1.50;;
19396;SDS011;9834;48.076;11.878;2022-07-09T06:17:37;4.20;;;1.70;;
19396;SDS011;9834;48.076;11.878;2022-07-09T06:20:07;3.13;;;1.80;;
19396;SDS011;9834;48.076;11.878;2022-07-09T06:22:34;5.97;;;2.07;;
19396;SDS011;9834;48.076;11.878;2022-07-09T06:25:01;2.97;;;1.60;;
19396;SDS011;9834;48.076;11.878;2022-07-09T06:27:30;5.67;;;2.00;;
19396;SDS011;9834;48.076;11.878;2022-07-09T06:29:57;3.60;;;1.70;;
19396;SDS011;9834;48.076;11.878;2022-07-09T06:32:24;2.17;;;1.57;;
19396;SDS011;9834;48.076;11.878;2022-07-09T06:34:51;1.80;;;1.67;;
19396;SDS011;9834;48.076;11.878;2022-07-09T06:37:18;3.80;;;1.57;;
19396;SDS011;9834;48.076;11.878;2022-07-09T06:39:45;2.50;;;1.93;;
19396;SDS011;9834;48.076;11.878;2022-07-09T06:42:14;2.00;;;1.60;;
19396;SDS011;9834;48.076;11.878;2022-07-09T06:44:43;3.90;;;1.30;;
19396;SDS011;9834;48.076;11.878;2022-07-09T06:47:18;4.90;;;1.80;;
19396;SDS011;9834;48.076;11.878;2022-07-09T06:49:45;1.77;;;1.40;;
19396;SDS011;9834;48.076;11.878;2022-07-09T06:52:12;1.60;;;1.30;;
19396;SDS011;9834;48.076;11.878;2022-07-09T06:54:52;3.97;;;1.67;;
19396;SDS011;9834;48.076;11.878;2022-07-09T06:57:20;2.37;;;1.53;;
19396;SDS011;9834;48.076;11.878;2022-07-09T06:59:48;4.30;;;1.70;;
19396;SDS011;9834;48.076;11.878;2022-07-09T07:02:15;2.93;;;1.40;;
19396;SDS011;9834;48.076;11.878;2022-07-09T07:04:48;2.53;;;1.53;;
19396;SDS011;9834;48.076;11.878;2022-07-09T07:07:16;3.53;;;2.30;;
19396;SDS011;9834;48.076;11.878;2022-07-09T07:09:45;3.70;;;1.53;;
19396;SDS011;9834;48.076;11.878;2022-07-09T07:12:12;2.70;;;1.47;;
19396;SDS011;9834;48.076;11.878;2022-07-09T07:14:40;3.20;;;1.43;;
19396;SDS011;9834;48.076;11.878;2022-07-09T07:17:10;3.87;;;1.93;;
19396;SDS011;9834;48.076;11.878;2022-07-09T07:19:37;1.97;;;1.50;;
19396;SDS011;9834;48.076;11.878;2022-07-09T07:22:09;2.87;;;1.60;;
19396;SDS011;9834;48.076;11.878;2022-07-09T07:24:39;2.47;;;1.60;;
19396;SDS011;9834;48.076;11.878;2022-07-09T07:27:08;2.53;;;1.43;;
19396;SDS011;9834;48.076;11.878;2022-07-09T07:29:35;3.43;;;1.93;;
19396;SDS011;9834;48.076;11.878;2022-07-09T07:32:02;3.03;;;1.40;;
19396;SDS011;9834;48.076;11.878;2022-07-09T07:34:30;4.93;;;1.80;;
19396;SDS011;9834;48.076;11.878;2022-07-09T07:36:57;2.77;;;1.70;;
19396;SDS011;9834;48.076;11.878;2022-07-09T07:39:24;1.60;;;1.30;;
19396;SDS011;9834;48.076;11.878;2022-07-09T07:41:56;5.50;;;2.07;;
19396;SDS011;9834;48.076;11.878;2022-07-09T07:44:23;5.67;;;1.60;;
19396;SDS011;9834;48.076;11.878;2022-07-09T07:46:50;4.30;;;1.67;;
19396;SDS011;9834;48.076;11.878;2022-07-09T07:49:17;2.40;;;1.50;;
19396;SDS011;9834;48.076;11.878;2022-07-09T07:51:45;2.90;;;1.43;;
19396;SDS011;9834;48.076;11.878;2022-07-09T07:54:15;1.70;;;1.40;;
19396;SDS011;9834;48.076;11.878;2022-07-09T07:56:42;2.57;;;1.33;;
19396;SDS011;9834;48.076;11.878;2022-07-09T07:59:09;2.67;;;1.30;;
19396;SDS011;9834;48.076;11.878;2022-07-09T08:01:38;4.23;;;1.50;;
19396;SDS011;9834;48.076;11.878;2022-07-09T08:04:05;4.18;;;1.52;;
19396;SDS011;9834;48.076;11.878;2022-07-09T08:06:32;3.25;;;1.50;;
19396;SDS011;9834;48.076;11.878;2022-07-09T08:09:01;3.38;;;1.60;;
19396;SDS011;9834;48.076;11.878;2022-07-09T08:11:28;3.88;;;1.38;;
19396;SDS011;9834;48.076;11.878;2022-07-09T08:13:55;5.80;;;1.90;;
19396;SDS011;9834;48.076;11.878;2022-07-09T08:16:22;3.03;;;1.70;;
19396;SDS011;9834;48.076;11.878;2022-07-09T08:18:52;6.72;;;1.92;;
19396;SDS011;9834;48.076;11.878;2022-07-09T08:21:19;2.03;;;1.27;;
19396;SDS011;9834;48.076;11.878;2022-07-09T08:23:46;4.18;;;1.60;;
19396;SDS011;9834;48.076;11.878;2022-07-09T08:26:22;2.97;;;1.50;;
19396;SDS011;9834;48.076;11.878;2022-07-09T08:28:51;1.98;;;1.80;;
19396;SDS011;9834;48.076;11.878;2022-07-09T08:31:22;4.68;;;1.60;;
19396;SDS011;9834;48.076;11.878;2022-07-09T08:33:51;2.92;;;2.47;;
19396;SDS011;9834;48.076;11.878;2022-07-09T08:36:18;4.00;;;2.10;;
19396;SDS011;9834;48.076;11.878;2022-07-09T08:38:45;3.03;;;1.55;;
19396;SDS011;9834;48.076;11.878;2022-07-09T08:41:14;1.85;;;1.58;;
19396;SDS011;9834;48.076;11.878;2022-07-09T08:43:48;3.45;;;2.00;;
19396;SDS011;9834;48.076;11.878;2022-07-09T08:46:17;2.30;;;1.75;;
19396;SDS011;9834;48.076;11.878;2022-07-09T08:48:46;1.90;;;1.60;;
19396;SDS011;9834;48.076;11.878;2022-07-09T08:51:17;3.15;;;1.83;;
19396;SDS011;9834;48.076;11.878;2022-07-09T08:53:45;2.83;;;1.55;;
19396;SDS011;9834;48.076;11.878;2022-07-09T08:56:19;5.10;;;3.40;;
19396;SDS011;9834;48.076;11.878;2022-07-09T08:59:01;3.70;;;2.17;;
19396;SDS011;9834;48.076;11.878;2022-07-09T09:01:28;3.90;;;1.50;;
19396;SDS011;9834;48.076;11.878;2022-07-09T09:03:55;3.58;;;1.40;;
19396;SDS011;9834;48.076;11.878;2022-07-09T09:06:22;4.13;;;1.95;;
19396;SDS011;9834;48.076;11.878;2022-07-09T09:08:52;5.82;;;1.75;;
19396;SDS011;9834;48.076;11.878;2022-07-09T09:11:20;3.95;;;3.30;;
19396;SDS011;9834;48.076;11.878;2022-07-09T09:13:49;6.95;;;2.67;;
19396;SDS011;9834;48.076;11.878;2022-07-09T09:16:20;2.95;;;1.67;;
19396;SDS011;9834;48.076;11.878;2022-07-09T09:18:50;3.85;;;1.70;;
19396;SDS011;9834;48.076;11.878;2022-07-09T09:21:19;2.47;;;1.50;;
19396;SDS011;9834;48.076;11.878;2022-07-09T09:23:47;2.20;;;1.30;;
19396;SDS011;9834;48.076;11.878;2022-07-09T09:26:16;8.68;;;1.65;;
19396;SDS011;9834;48.076;11.878;2022-07-09T09:28:45;1.85;;;1.33;;
19396;SDS011;9834;48.076;11.878;2022-07-09T09:31:20;3.73;;;2.30;;
19396;SDS011;9834;48.076;11.878;2022-07-09T09:33:48;3.05;;;1.75;;
19396;SDS011;9834;48.076;11.878;2022-07-09T09:36:29;3.87;;;1.50;;
19396;SDS011;9834;48.076;11.878;2022-07-09T09:41:52;3.08;;;1.23;;
19396;SDS011;9834;48.076;11.878;2022-07-09T09:44:21;2.88;;;1.50;;
19396;SDS011;9834;48.076;11.878;2022-07-09T09:46:55;2.58;;;1.63;;
19396;SDS011;9834;48.076;11.878;2022-07-09T09:49:23;3.60;;;1.50;;
19396;SDS011;9834;48.076;11.878;2022-07-09T09:51:51;1.70;;;1.30;;
19396;SDS011;9834;48.076;11.878;2022-07-09T09:54:26;2.08;;;1.40;;
19396;SDS011;9834;48.076;11.878;2022-07-09T09:56:56;1.65;;;1.25;;
19396;SDS011;9834;48.076;11.878;2022-07-09T09:59:25;1.88;;;1.30;;
19396;SDS011;9834;48.076;11.878;2022-07-09T10:01:52;3.40;;;1.40;;
19396;SDS011;9834;48.076;11.878;2022-07-09T10:04:21;3.35;;;1.27;;
19396;SDS011;9834;48.076;11.878;2022-07-09T10:06:50;2.17;;;1.23;;
19396;SDS011;9834;48.076;11.878;2022-07-09T10:09:17;3.70;;;1.77;;
19396;SDS011;9834;48.076;11.878;2022-07-09T10:11:45;2.60;;;1.17;;
19396;SDS011;9834;48.076;11.878;2022-07-09T10:14:15;2.20;;;1.40;;
19396;SDS011;9834;48.076;11.878;2022-07-09T10:16:44;1.88;;;1.38;;
19396;SDS011;9834;48.076;11.878;2022-07-09T10:19:25;2.67;;;1.70;;
19396;SDS011;9834;48.076;11.878;2022-07-09T10:21:53;2.20;;;1.27;;
19396;SDS011;9834;48.076;11.878;2022-07-09T10:24:25;3.35;;;1.30;;
19396;SDS011;9834;48.076;11.878;2022-07-09T10:27:01;2.45;;;1.00;;
19396;SDS011;9834;48.076;11.878;2022-07-09T10:29:29;2.03;;;1.05;;
19396;SDS011;9834;48.076;11.878;2022-07-09T10:31:59;1.10;;;0.90;;
19396;SDS011;9834;48.076;11.878;2022-07-09T10:37:31;2.47;;;1.20;;
19396;SDS011;9834;48.076;11.878;2022-07-09T10:40:12;2.55;;;1.58;;
19396;SDS011;9834;48.076;11.878;2022-07-09T10:42:41;2.53;;;1.45;;
19396;SDS011;9834;48.076;11.878;2022-07-09T10:45:21;3.55;;;0.82;;
19396;SDS011;9834;48.076;11.878;2022-07-09T10:47:52;3.33;;;1.00;;
19396;SDS011;9834;48.076;11.878;2022-07-09T10:50:22;2.13;;;0.98;;
19396;SDS011;9834;48.076;11.878;2022-07-09T10:52:49;3.33;;;1.02;;
19396;SDS011;9834;48.076;11.878;2022-07-09T10:55:18;5.68;;;1.15;;
19396;SDS011;9834;48.076;11.878;2022-07-09T10:57:46;4.15;;;1.10;;
19396;SDS011;9834;48.076;11.878;2022-07-09T11:00:16;3.08;;;1.10;;
19396;SDS011;9834;48.076;11.878;2022-07-09T11:02:54;2.53;;;1.20;;
19396;SDS011;9834;48.076;11.878;2022-07-09T11:05:26;2.60;;;1.20;;
19396;SDS011;9834;48.076;11.878;2022-07-09T11:07:58;3.35;;;1.10;;
19396;SDS011;9834;48.076;11.878;2022-07-09T11:10:26;4.30;;;1.10;;
19396;SDS011;9834;48.076;11.878;2022-07-09T11:12:55;2.28;;;0.82;;
19396;SDS011;9834;48.076;11.878;2022-07-09T11:15:24;2.45;;;1.17;;
19396;SDS011;9834;48.076;11.878;2022-07-09T11:17:56;3.17;;;1.00;;
19396;SDS011;9834;48.076;11.878;2022-07-09T11:20:25;3.55;;;1.15;;
19396;SDS011;9834;48.076;11.878;2022-07-09T11:22:53;2.63;;;1.08;;
19396;SDS011;9834;48.076;11.878;2022-07-09T11:25:22;2.72;;;1.13;;
19396;SDS011;9834;48.076;11.878;2022-07-09T11:27:56;2.47;;;1.02;;
19396;SDS011;9834;48.076;11.878;2022-07-09T11:30:28;3.53;;;1.13;;
19396;SDS011;9834;48.076;11.878;2022-07-09T11:32:57;1.92;;;1.00;;
19396;SDS011;9834;48.076;11.878;2022-07-09T11:35:27;2.40;;;1.17;;
19396;SDS011;9834;48.076;11.878;2022-07-09T11:37:56;1.00;;;0.82;;
19396;SDS011;9834;48.076;11.878;2022-07-09T11:40:27;2.03;;;1.30;;
19396;SDS011;9834;48.076;11.878;2022-07-09T11:42:54;1.50;;;1.20;;
19396;SDS011;9834;48.076;11.878;2022-07-09T11:45:24;2.20;;;0.98;;
19396;SDS011;9834;48.076;11.878;2022-07-09T11:48:01;2.17;;;1.02;;
19396;SDS011;9834;48.076;11.878;2022-07-09T11:50:41;2.17;;;1.42;;
19396;SDS011;9834;48.076;11.878;2022-07-09T11:53:18;3.25;;;1.05;;
19396;SDS011;9834;48.076;11.878;2022-07-09T11:55:58;1.98;;;1.20;;
19396;SDS011;9834;48.076;11.878;2022-07-09T11:58:26;3.45;;;1.42;;
19396;SDS011;9834;48.076;11.878;2022-07-09T12:00:56;3.97;;;1.30;;
19396;SDS011;9834;48.076;11.878;2022-07-09T12:03:25;3.75;;;1.20;;
19396;SDS011;9834;48.076;11.878;2022-07-09T12:05:54;3.80;;;1.02;;
19396;SDS011;9834;48.076;11.878;2022-07-09T12:08:31;5.55;;;1.10;;
19396;SDS011;9834;48.076;11.878;2022-07-09T12:11:01;3.72;;;1.10;;
19396;SDS011;9834;48.076;11.878;2022-07-09T12:13:29;2.28;;;1.00;;
19396;SDS011;9834;48.076;11.878;2022-07-09T12:15:56;1.35;;;1.10;;
19396;SDS011;9834;48.076;11.878;2022-07-09T12:18:23;2.00;;;1.00;;
19396;SDS011;9834;48.076;11.878;2022-07-09T12:20:56;1.65;;;1.27;;
19396;SDS011;9834;48.076;11.878;2022-07-09T12:23:25;2.53;;;1.40;;
19396;SDS011;9834;48.076;11.878;2022-07-09T12:25:55;1.88;;;0.98;;
19396;SDS011;9834;48.076;11.878;2022-07-09T12:28:22;2.30;;;1.17;;
19396;SDS011;9834;48.076;11.878;2022-07-09T12:30:49;1.85;;;1.13;;
19396;SDS011;9834;48.076;11.878;2022-07-09T12:33:16;1.98;;;1.40;;
19396;SDS011;9834;48.076;11.878;2022-07-09T12:35:43;2.50;;;1.00;;
19396;SDS011;9834;48.076;11.878;2022-07-09T12:38:13;3.20;;;1.30;;
19396;SDS011;9834;48.076;11.878;2022-07-09T12:40:40;3.15;;;1.30;;
19396;SDS011;9834;48.076;11.878;2022-07-09T12:43:07;3.15;;;1.30;;
19396;SDS011;9834;48.076;11.878;2022-07-09T12:45:34;2.92;;;1.20;;
19396;SDS011;9834;48.076;11.878;2022-07-09T12:48:04;1.42;;;0.90;;
19396;SDS011;9834;48.076;11.878;2022-07-09T12:50:34;2.55;;;1.30;;
19396;SDS011;9834;48.076;11.878;2022-07-09T12:53:04;4.10;;;1.20;;
19396;SDS011;9834;48.076;11.878;2022-07-09T12:55:32;4.03;;;1.20;;
19396;SDS011;9834;48.076;11.878;2022-07-09T12:58:04;3.33;;;1.20;;
19396;SDS011;9834;48.076;11.878;2022-07-09T13:00:31;2.33;;;1.10;;
19396;SDS011;9834;48.076;11.878;2022-07-09T13:02:58;3.17;;;1.20;;
19396;SDS011;9834;48.076;11.878;2022-07-09T13:05:25;2.03;;;1.10;;
19396;SDS011;9834;48.076;11.878;2022-07-09T13:07:53;6.18;;;1.50;;
19396;SDS011;9834;48.076;11.878;2022-07-09T13:10:21;1.80;;;1.00;;
19396;SDS011;9834;48.076;11.878;2022-07-09T13:12:50;3.42;;;1.35;;
19396;SDS011;9834;48.076;11.878;2022-07-09T13:15:21;5.03;;;1.70;;
19396;SDS011;9834;48.076;11.878;2022-07-09T13:17:48;1.73;;;1.20;;
19396;SDS011;9834;48.076;11.878;2022-07-09T13:20:15;2.15;;;0.80;;
19396;SDS011;9834;48.076;11.878;2022-07-09T13:22:43;2.78;;;1.05;;
19396;SDS011;9834;48.076;11.878;2022-07-09T13:25:10;2.47;;;0.90;;
19396;SDS011;9834;48.076;11.878;2022-07-09T13:27:37;2.92;;;0.82;;
19396;SDS011;9834;48.076;11.878;2022-07-09T13:30:06;2.63;;;1.50;;
19396;SDS011;9834;48.076;11.878;2022-07-09T13:32:34;3.08;;;1.58;;
19396;SDS011;9834;48.076;11.878;2022-07-09T13:35:01;4.07;;;1.40;;
19396;SDS011;9834;48.076;11.878;2022-07-09T13:37:34;3.28;;;1.13;;
19396;SDS011;9834;48.076;11.878;2022-07-09T13:40:01;1.98;;;1.30;;
19396;SDS011;9834;48.076;11.878;2022-07-09T13:42:28;2.80;;;1.08;;
19396;SDS011;9834;48.076;11.878;2022-07-09T13:44:55;2.95;;;1.33;;
19396;SDS011;9834;48.076;11.878;2022-07-09T13:47:26;3.92;;;2.35;;
19396;SDS011;9834;48.076;11.878;2022-07-09T13:49:53;6.97;;;4.20;;
19396;SDS011;9834;48.076;11.878;2022-07-09T13:52:23;1.35;;;1.20;;
19396;SDS011;9834;48.076;11.878;2022-07-09T13:54:50;3.20;;;1.95;;
19396;SDS011;9834;48.076;11.878;2022-07-09T13:57:19;1.90;;;1.08;;
19396;SDS011;9834;48.076;11.878;2022-07-09T13:59:46;4.43;;;1.45;;
19396;SDS011;9834;48.076;11.878;2022-07-09T14:02:13;2.08;;;0.98;;
19396;SDS011;9834;48.076;11.878;2022-07-09T14:04:42;2.58;;;0.98;;
19396;SDS011;9834;48.076;11.878;2022-07-09T14:07:09;3.00;;;1.33;;
19396;SDS011;9834;48.076;11.878;2022-07-09T14:09:38;4.13;;;1.25;;
19396;SDS011;9834;48.076;11.878;2022-07-09T14:12:06;2.15;;;1.13;;
19396;SDS011;9834;48.076;11.878;2022-07-09T14:14:33;1.55;;;1.15;;
19396;SDS011;9834;48.076;11.878;2022-07-09T14:17:00;2.15;;;0.77;;
19396;SDS011;9834;48.076;11.878;2022-07-09T14:19:28;3.08;;;1.05;;
19396;SDS011;9834;48.076;11.878;2022-07-09T14:21:56;2.20;;;1.45;;
19396;SDS011;9834;48.076;11.878;2022-07-09T14:24:23;1.98;;;1.20;;
19396;SDS011;9834;48.076;11.878;2022-07-09T14:26:50;3.50;;;1.13;;
19396;SDS011;9834;48.076;11.878;2022-07-09T14:29:17;1.77;;;1.30;;
19396;SDS011;9834;48.076;11.878;2022-07-09T14:31:45;2.92;;;1.02;;
19396;SDS011;9834;48.076;11.878;2022-07-09T14:34:12;1.98;;;1.52;;
19396;SDS011;9834;48.076;11.878;2022-07-09T14:36:40;3.20;;;1.20;;
19396;SDS011;9834;48.076;11.878;2022-07-09T14:39:11;2.55;;;1.17;;
19396;SDS011;9834;48.076;11.878;2022-07-09T14:41:38;3.15;;;1.23;;
19396;SDS011;9834;48.076;11.878;2022-07-09T14:44:05;3.15;;;1.40;;
19396;SDS011;9834;48.076;11.878;2022-07-09T14:46:32;3.15;;;1.13;;
19396;SDS011;9834;48.076;11.878;2022-07-09T14:49:00;2.45;;;1.17;;
19396;SDS011;9834;48.076;11.878;2022-07-09T14:51:29;0.98;;;0.85;;
19396;SDS011;9834;48.076;11.878;2022-07-09T14:53:58;1.58;;;0.90;;
19396;SDS011;9834;48.076;11.878;2022-07-09T14:56:26;2.40;;;1.00;;
19396;SDS011;9834;48.076;11.878;2022-07-09T14:58:53;3.25;;;0.90;;
19396;SDS011;9834;48.076;11.878;2022-07-09T15:01:39;1.80;;;1.10;;
19396;SDS011;9834;48.076;11.878;2022-07-09T15:04:07;1.23;;;1.10;;